sensor_id;sensor_type;location;lat;lon;timestamp;temperature;humidity
10964;DHT22;5534;48.784;9.190;2023-07-09T00:01:14;25.70;98.90
10964;DHT22;5534;48.784;9.190;2023-07-09T00:03:43;25.70;99.10
10964;DHT22;5534;48.784;9.190;2023-07-09T00:06:09;25.70;99.20
10964;DHT22;5534;48.784;9.190;2023-07-09T00:08:36;25.70;99.30
10964;DHT22;5534;48.784;9.190;2023-07-09T00:11:03;25.70;99.50
10964;DHT22;5534;48.784;9.190;2023-07-09T00:13:29;25.60;99.70
10964;DHT22;5534;48.784;9.190;2023-07-09T00:15:58;25.70;99.90
10964;DHT22;5534;48.784;9.190;2023-07-09T00:18:25;25.70;99.80
10964;DHT22;5534;48.784;9.190;2023-07-09T00:20:51;25.70;99.90
10964;DHT22;5534;48.784;9.190;2023-07-09T00:23:16;25.60;99.90
10964;DHT22;5534;48.784;9.190;2023-07-09T00:25:46;25.60;99.90
10964;DHT22;5534;48.784;9.190;2023-07-09T00:28:14;25.70;99.90
10964;DHT22;5534;48.784;9.190;2023-07-09T00:30:40;25.50;99.90
10964;DHT22;5534;48.784;9.190;2023-07-09T00:33:16;25.40;99.90
10964;DHT22;5534;48.784;9.190;2023-07-09T00:35:45;25.40;99.90
10964;DHT22;5534;48.784;9.190;2023-07-09T00:38:17;25.40;99.90
10964;DHT22;5534;48.784;9.190;2023-07-09T00:43:29;25.30;99.90
10964;DHT22;5534;48.784;9.190;2023-07-09T00:49:02;25.40;99.90
10964;DHT22;5534;48.784;9.190;2023-07-09T00:51:33;25.00;99.90
10964;DHT22;5534;48.784;9.190;2023-07-09T00:54:27;25.10;99.90
10964;DHT22;5534;48.784;9.190;2023-07-09T00:56:59;25.10;99.90
10964;DHT22;5534;48.784;9.190;2023-07-09T00:59:28;25.20;99.90
10964;DHT22;5534;48.784;9.190;2023-07-09T01:01:55;25.20;99.90
10964;DHT22;5534;48.784;9.190;2023-07-09T01:04:22;25.20;99.90
10964;DHT22;5534;48.784;9.190;2023-07-09T01:06:53;25.20;99.90
10964;DHT22;5534;48.784;9.190;2023-07-09T01:09:25;25.10;99.90
10964;DHT22;5534;48.784;9.190;2023-07-09T01:11:51;25.10;99.90
10964;DHT22;5534;48.784;9.190;2023-07-09T01:14:19;25.10;99.90
10964;DHT22;5534;48.784;9.190;2023-07-09T01:16:50;25.10;99.90
10964;DHT22;5534;48.784;9.190;2023-07-09T01:19:28;25.00;99.90
10964;DHT22;5534;48.784;9.190;2023-07-09T01:22:01;24.90;99.90
10964;DHT22;5534;48.784;9.190;2023-07-09T01:24:59;25.00;99.90
10964;DHT22;5534;48.784;9.190;2023-07-09T01:27:47;25.00;99.90
10964;DHT22;5534;48.784;9.190;2023-07-09T01:30:30;24.80;99.90
10964;DHT22;5534;48.784;9.190;2023-07-09T01:32:59;24.50;99.90
10964;DHT22;5534;48.784;9.190;2023-07-09T01:35:30;24.50;99.90
10964;DHT22;5534;48.784;9.190;2023-07-09T01:37:57;24.60;99.90
10964;DHT22;5534;48.784;9.190;2023-07-09T01:40:24;24.70;99.90
10964;DHT22;5534;48.784;9.190;2023-07-09T01:42:51;24.80;99.90
10964;DHT22;5534;48.784;9.190;2023-07-09T01:45:17;24.80;99.90
10964;DHT22;5534;48.784;9.190;2023-07-09T01:47:43;24.80;99.90
10964;DHT22;5534;48.784;9.190;2023-07-09T01:50:10;24.80;99.90
10964;DHT22;5534;48.784;9.190;2023-07-09T01:52:38;24.80;99.90
10964;DHT22;5534;48.784;9.190;2023-07-09T01:55:07;24.70;99.90
10964;DHT22;5534;48.784;9.190;2023-07-09T01:57:33;24.70;99.90
10964;DHT22;5534;48.784;9.190;2023-07-09T02:00:03;24.60;99.90
10964;DHT22;5534;48.784;9.190;2023-07-09T02:02:30;24.50;99.90
10964;DHT22;5534;48.784;9.190;2023-07-09T02:04:58;24.50;99.90
10964;DHT22;5534;48.784;9.190;2023-07-09T02:07:25;24.60;99.90
10964;DHT22;5534;48.784;9.190;2023-07-09T02:09:51;24.60;99.90
10964;DHT22;5534;48.784;9.190;2023-07-09T02:12:18;24.60;99.90
10964;DHT22;5534;48.784;9.190;2023-07-09T02:14:45;24.50;99.90
10964;DHT22;5534;48.784;9.190;2023-07-09T02:17:12;24.50;99.90
10964;DHT22;5534;48.784;9.190;2023-07-09T02:19:38;24.50;99.90
10964;DHT22;5534;48.784;9.190;2023-07-09T02:22:04;24.60;99.90
10964;DHT22;5534;48.784;9.190;2023-07-09T02:24:31;24.50;99.90
10964;DHT22;5534;48.784;9.190;2023-07-09T02:26:58;24.40;99.90
10964;DHT22;5534;48.784;9.190;2023-07-09T02:29:26;24.30;99.90
10964;DHT22;5534;48.784;9.190;2023-07-09T02:31:54;24.30;99.90
10964;DHT22;5534;48.784;9.190;2023-07-09T02:34:20;24.30;99.90
10964;DHT22;5534;48.784;9.190;2023-07-09T02:36:55;24.20;99.90
10964;DHT22;5534;48.784;9.190;2023-07-09T02:39:22;24.20;99.90
10964;DHT22;5534;48.784;9.190;2023-07-09T02:41:49;24.20;99.90
10964;DHT22;5534;48.784;9.190;2023-07-09T02:44:15;24.00;99.90
10964;DHT22;5534;48.784;9.190;2023-07-09T02:46:41;24.00;99.90
10964;DHT22;5534;48.784;9.190;2023-07-09T02:49:10;24.10;99.90
10964;DHT22;5534;48.784;9.190;2023-07-09T02:51:35;24.20;99.90
10964;DHT22;5534;48.784;9.190;2023-07-09T02:54:02;24.30;99.90
10964;DHT22;5534;48.784;9.190;2023-07-09T02:56:29;24.20;99.90
10964;DHT22;5534;48.784;9.190;2023-07-09T02:58:55;24.10;99.90
10964;DHT22;5534;48.784;9.190;2023-07-09T03:01:20;24.10;99.90
10964;DHT22;5534;48.784;9.190;2023-07-09T03:03:56;24.20;99.90
10964;DHT22;5534;48.784;9.190;2023-07-09T03:06:24;24.10;99.90
10964;DHT22;5534;48.784;9.190;2023-07-09T03:08:50;24.10;99.90
10964;DHT22;5534;48.784;9.190;2023-07-09T03:11:17;23.60;99.90
10964;DHT22;5534;48.784;9.190;2023-07-09T03:13:44;23.60;99.90
10964;DHT22;5534;48.784;9.190;2023-07-09T03:16:10;23.50;99.90
10964;DHT22;5534;48.784;9.190;2023-07-09T03:18:36;23.60;99.90
10964;DHT22;5534;48.784;9.190;2023-07-09T03:21:01;23.70;99.90
10964;DHT22;5534;48.784;9.190;2023-07-09T03:23:27;23.80;99.90
10964;DHT22;5534;48.784;9.190;2023-07-09T03:25:54;23.70;99.90
10964;DHT22;5534;48.784;9.190;2023-07-09T03:28:19;23.90;99.90
10964;DHT22;5534;48.784;9.190;2023-07-09T03:30:47;24.00;99.90
10964;DHT22;5534;48.784;9.190;2023-07-09T03:33:15;23.90;99.90
10964;DHT22;5534;48.784;9.190;2023-07-09T03:35:41;23.90;99.90
10964;DHT22;5534;48.784;9.190;2023-07-09T03:38:08;24.00;99.90
10964;DHT22;5534;48.784;9.190;2023-07-09T03:40:35;24.00;99.90
10964;DHT22;5534;48.784;9.190;2023-07-09T03:43:03;23.90;99.90
10964;DHT22;5534;48.784;9.190;2023-07-09T03:45:30;23.80;99.90
10964;DHT22;5534;48.784;9.190;2023-07-09T03:47:56;23.80;99.90
10964;DHT22;5534;48.784;9.190;2023-07-09T03:50:22;23.80;99.90
10964;DHT22;5534;48.784;9.190;2023-07-09T03:52:48;23.70;99.90
10964;DHT22;5534;48.784;9.190;2023-07-09T03:55:14;23.70;99.90
10964;DHT22;5534;48.784;9.190;2023-07-09T03:57:40;23.70;99.90
10964;DHT22;5534;48.784;9.190;2023-07-09T04:00:06;23.70;99.90
10964;DHT22;5534;48.784;9.190;2023-07-09T04:02:39;23.50;99.90
10964;DHT22;5534;48.784;9.190;2023-07-09T04:05:06;23.50;99.90
10964;DHT22;5534;48.784;9.190;2023-07-09T04:07:34;23.50;99.90
10964;DHT22;5534;48.784;9.190;2023-07-09T04:10:00;23.60;99.90
10964;DHT22;5534;48.784;9.190;2023-07-09T04:12:26;23.70;99.90
10964;DHT22;5534;48.784;9.190;2023-07-09T04:14:51;23.80;99.90
10964;DHT22;5534;48.784;9.190;2023-07-09T04:17:17;23.70;99.90
10964;DHT22;5534;48.784;9.190;2023-07-09T04:19:43;23.50;99.90
10964;DHT22;5534;48.784;9.190;2023-07-09T04:22:10;23.50;99.90
10964;DHT22;5534;48.784;9.190;2023-07-09T04:24:36;23.70;99.90
10964;DHT22;5534;48.784;9.190;2023-07-09T04:27:02;23.70;99.90
10964;DHT22;5534;48.784;9.190;2023-07-09T04:29:32;23.80;99.90
10964;DHT22;5534;48.784;9.190;2023-07-09T04:32:02;23.80;99.90
10964;DHT22;5534;48.784;9.190;2023-07-09T04:34:28;23.90;99.90
10964;DHT22;5534;48.784;9.190;2023-07-09T04:36:54;23.90;99.90
10964;DHT22;5534;48.784;9.190;2023-07-09T04:39:20;23.80;99.90
10964;DHT22;5534;48.784;9.190;2023-07-09T04:41:46;23.80;99.90
10964;DHT22;5534;48.784;9.190;2023-07-09T04:44:12;23.90;99.90
10964;DHT22;5534;48.784;9.190;2023-07-09T04:46:38;23.70;99.90
10964;DHT22;5534;48.784;9.190;2023-07-09T04:49:03;23.70;99.90
10964;DHT22;5534;48.784;9.190;2023-07-09T04:51:29;23.60;99.90
10964;DHT22;5534;48.784;9.190;2023-07-09T04:53:55;23.80;99.90
10964;DHT22;5534;48.784;9.190;2023-07-09T04:56:21;23.80;99.90
10964;DHT22;5534;48.784;9.190;2023-07-09T04:58:46;23.90;99.90
10964;DHT22;5534;48.784;9.190;2023-07-09T05:01:12;24.00;99.90
10964;DHT22;5534;48.784;9.190;2023-07-09T05:03:38;24.00;99.90
10964;DHT22;5534;48.784;9.190;2023-07-09T05:06:04;24.10;99.90
10964;DHT22;5534;48.784;9.190;2023-07-09T05:08:30;24.00;99.90
10964;DHT22;5534;48.784;9.190;2023-07-09T05:10:57;24.10;99.90
10964;DHT22;5534;48.784;9.190;2023-07-09T05:13:24;24.10;99.90
10964;DHT22;5534;48.784;9.190;2023-07-09T05:15:50;24.20;99.90
10964;DHT22;5534;48.784;9.190;2023-07-09T05:18:17;24.20;99.90
10964;DHT22;5534;48.784;9.190;2023-07-09T05:20:46;24.20;99.90
10964;DHT22;5534;48.784;9.190;2023-07-09T05:23:12;24.20;99.90
10964;DHT22;5534;48.784;9.190;2023-07-09T05:25:38;24.20;99.90
10964;DHT22;5534;48.784;9.190;2023-07-09T05:28:04;24.30;99.90
10964;DHT22;5534;48.784;9.190;2023-07-09T05:30:31;24.30;99.90
10964;DHT22;5534;48.784;9.190;2023-07-09T05:32:57;24.30;99.90
10964;DHT22;5534;48.784;9.190;2023-07-09T05:35:26;24.40;99.90
10964;DHT22;5534;48.784;9.190;2023-07-09T05:37:53;24.50;99.90
10964;DHT22;5534;48.784;9.190;2023-07-09T05:40:20;24.40;99.90
10964;DHT22;5534;48.784;9.190;2023-07-09T05:42:47;24.50;99.90
10964;DHT22;5534;48.784;9.190;2023-07-09T05:45:13;24.50;99.90
10964;DHT22;5534;48.784;9.190;2023-07-09T05:47:38;24.40;99.90
10964;DHT22;5534;48.784;9.190;2023-07-09T05:50:05;24.30;99.90
10964;DHT22;5534;48.784;9.190;2023-07-09T05:52:31;24.20;99.90
10964;DHT22;5534;48.784;9.190;2023-07-09T05:54:57;24.20;99.90
10964;DHT22;5534;48.784;9.190;2023-07-09T05:57:24;24.40;99.90
10964;DHT22;5534;48.784;9.190;2023-07-09T05:59:50;24.50;99.90
10964;DHT22;5534;48.784;9.190;2023-07-09T06:02:19;24.60;99.90
10964;DHT22;5534;48.784;9.190;2023-07-09T06:04:46;24.70;99.90
10964;DHT22;5534;48.784;9.190;2023-07-09T06:07:12;24.80;99.90
10964;DHT22;5534;48.784;9.190;2023-07-09T06:09:41;24.70;99.90
10964;DHT22;5534;48.784;9.190;2023-07-09T06:12:07;24.70;99.90
10964;DHT22;5534;48.784;9.190;2023-07-09T06:14:33;24.70;99.90
10964;DHT22;5534;48.784;9.190;2023-07-09T06:17:00;24.80;99.90
10964;DHT22;5534;48.784;9.190;2023-07-09T06:19:26;25.20;99.90
10964;DHT22;5534;48.784;9.190;2023-07-09T06:21:51;26.10;99.90
10964;DHT22;5534;48.784;9.190;2023-07-09T06:24:17;26.50;99.90
10964;DHT22;5534;48.784;9.190;2023-07-09T06:26:43;28.40;99.90
10964;DHT22;5534;48.784;9.190;2023-07-09T06:29:09;30.90;99.90
10964;DHT22;5534;48.784;9.190;2023-07-09T06:31:34;32.80;96.70
10964;DHT22;5534;48.784;9.190;2023-07-09T06:34:03;33.90;94.00
10964;DHT22;5534;48.784;9.190;2023-07-09T06:36:29;34.20;92.60
10964;DHT22;5534;48.784;9.190;2023-07-09T06:38:55;34.60;91.50
10964;DHT22;5534;48.784;9.190;2023-07-09T06:41:21;35.60;89.90
10964;DHT22;5534;48.784;9.190;2023-07-09T06:43:46;36.10;86.70
10964;DHT22;5534;48.784;9.190;2023-07-09T06:46:14;36.30;84.90
10964;DHT22;5534;48.784;9.190;2023-07-09T06:48:40;37.10;82.10
10964;DHT22;5534;48.784;9.190;2023-07-09T06:51:06;37.00;80.50
10964;DHT22;5534;48.784;9.190;2023-07-09T06:53:32;37.30;79.40
10964;DHT22;5534;48.784;9.190;2023-07-09T06:55:58;37.30;78.40
10964;DHT22;5534;48.784;9.190;2023-07-09T06:58:28;37.30;78.20
10964;DHT22;5534;48.784;9.190;2023-07-09T07:00:54;37.20;77.60
10964;DHT22;5534;48.784;9.190;2023-07-09T07:03:21;36.70;78.10
10964;DHT22;5534;48.784;9.190;2023-07-09T07:05:50;36.70;78.10
10964;DHT22;5534;48.784;9.190;2023-07-09T07:08:18;35.90;79.30
10964;DHT22;5534;48.784;9.190;2023-07-09T07:10:45;35.60;79.60
10964;DHT22;5534;48.784;9.190;2023-07-09T07:13:12;35.50;80.00
10964;DHT22;5534;48.784;9.190;2023-07-09T07:15:38;34.80;81.10
10964;DHT22;5534;48.784;9.190;2023-07-09T07:18:05;34.50;82.00
10964;DHT22;5534;48.784;9.190;2023-07-09T07:20:32;34.60;81.80
10964;DHT22;5534;48.784;9.190;2023-07-09T07:22:58;34.60;81.80
10964;DHT22;5534;48.784;9.190;2023-07-09T07:25:27;34.40;82.20
10964;DHT22;5534;48.784;9.190;2023-07-09T07:27:55;34.10;83.10
10964;DHT22;5534;48.784;9.190;2023-07-09T07:30:21;34.30;83.20
10964;DHT22;5534;48.784;9.190;2023-07-09T07:32:48;34.10;84.00
10964;DHT22;5534;48.784;9.190;2023-07-09T07:35:15;33.80;83.80
10964;DHT22;5534;48.784;9.190;2023-07-09T07:37:41;33.90;83.70
10964;DHT22;5534;48.784;9.190;2023-07-09T07:40:08;33.80;83.80
10964;DHT22;5534;48.784;9.190;2023-07-09T07:42:34;33.50;84.30
10964;DHT22;5534;48.784;9.190;2023-07-09T07:45:00;33.50;84.60
10964;DHT22;5534;48.784;9.190;2023-07-09T07:47:26;33.50;84.60
10964;DHT22;5534;48.784;9.190;2023-07-09T07:49:56;33.50;84.60
10964;DHT22;5534;48.784;9.190;2023-07-09T07:52:22;33.20;85.70
10964;DHT22;5534;48.784;9.190;2023-07-09T07:54:48;33.00;85.60
10964;DHT22;5534;48.784;9.190;2023-07-09T07:57:14;32.80;85.80
10964;DHT22;5534;48.784;9.190;2023-07-09T07:59:40;33.00;85.90
10964;DHT22;5534;48.784;9.190;2023-07-09T08:02:10;33.40;85.10
10964;DHT22;5534;48.784;9.190;2023-07-09T08:04:36;33.30;84.80
10964;DHT22;5534;48.784;9.190;2023-07-09T08:07:02;32.90;85.10
10964;DHT22;5534;48.784;9.190;2023-07-09T08:09:28;33.00;85.60
10964;DHT22;5534;48.784;9.190;2023-07-09T08:11:54;33.10;85.40
10964;DHT22;5534;48.784;9.190;2023-07-09T08:14:20;33.40;84.80
10964;DHT22;5534;48.784;9.190;2023-07-09T08:16:47;33.60;84.20
10964;DHT22;5534;48.784;9.190;2023-07-09T08:19:13;33.30;83.90
10964;DHT22;5534;48.784;9.190;2023-07-09T08:21:38;33.20;84.20
10964;DHT22;5534;48.784;9.190;2023-07-09T08:24:06;33.20;84.30
10964;DHT22;5534;48.784;9.190;2023-07-09T08:26:32;33.20;84.10
10964;DHT22;5534;48.784;9.190;2023-07-09T08:28:58;33.30;83.60
10964;DHT22;5534;48.784;9.190;2023-07-09T08:31:24;33.20;83.50
10964;DHT22;5534;48.784;9.190;2023-07-09T08:33:50;33.20;82.50
10964;DHT22;5534;48.784;9.190;2023-07-09T08:36:15;33.30;81.90
10964;DHT22;5534;48.784;9.190;2023-07-09T08:38:41;33.30;81.80
10964;DHT22;5534;48.784;9.190;2023-07-09T08:44:53;33.00;82.20
10964;DHT22;5534;48.784;9.190;2023-07-09T08:50:24;33.10;82.40
10964;DHT22;5534;48.784;9.190;2023-07-09T08:52:51;33.20;82.20
10964;DHT22;5534;48.784;9.190;2023-07-09T08:55:21;33.10;83.20
10964;DHT22;5534;48.784;9.190;2023-07-09T08:57:52;33.00;83.70
10964;DHT22;5534;48.784;9.190;2023-07-09T09:00:30;33.10;84.00
10964;DHT22;5534;48.784;9.190;2023-07-09T09:03:09;33.30;83.40
10964;DHT22;5534;48.784;9.190;2023-07-09T09:05:41;33.20;83.30
10964;DHT22;5534;48.784;9.190;2023-07-09T09:08:55;33.00;83.80
10964;DHT22;5534;48.784;9.190;2023-07-09T09:13:39;32.50;84.60
10964;DHT22;5534;48.784;9.190;2023-07-09T09:16:25;32.50;84.30
10964;DHT22;5534;48.784;9.190;2023-07-09T09:18:55;32.20;84.80
10964;DHT22;5534;48.784;9.190;2023-07-09T09:21:36;32.60;85.00
10964;DHT22;5534;48.784;9.190;2023-07-09T09:24:23;32.50;84.10
10964;DHT22;5534;48.784;9.190;2023-07-09T09:26:53;32.00;84.70
10964;DHT22;5534;48.784;9.190;2023-07-09T09:29:24;32.00;85.80
10964;DHT22;5534;48.784;9.190;2023-07-09T09:31:53;32.00;84.80
10964;DHT22;5534;48.784;9.190;2023-07-09T09:34:30;32.10;84.50
10964;DHT22;5534;48.784;9.190;2023-07-09T09:36:58;32.00;84.80
10964;DHT22;5534;48.784;9.190;2023-07-09T09:39:25;32.00;84.70
10964;DHT22;5534;48.784;9.190;2023-07-09T09:41:56;32.10;84.30
10964;DHT22;5534;48.784;9.190;2023-07-09T09:44:27;32.20;84.00
10964;DHT22;5534;48.784;9.190;2023-07-09T09:46:56;32.10;83.70
10964;DHT22;5534;48.784;9.190;2023-07-09T09:49:22;32.00;84.00
10964;DHT22;5534;48.784;9.190;2023-07-09T09:51:51;31.90;84.00
10964;DHT22;5534;48.784;9.190;2023-07-09T09:54:26;31.90;84.40
10964;DHT22;5534;48.784;9.190;2023-07-09T09:56:53;32.00;83.80
10964;DHT22;5534;48.784;9.190;2023-07-09T09:59:23;32.10;83.30
10964;DHT22;5534;48.784;9.190;2023-07-09T10:02:01;32.20;83.40
10964;DHT22;5534;48.784;9.190;2023-07-09T10:04:28;32.50;82.70
10964;DHT22;5534;48.784;9.190;2023-07-09T10:07:03;32.30;81.50
10964;DHT22;5534;48.784;9.190;2023-07-09T10:09:50;32.20;81.10
10964;DHT22;5534;48.784;9.190;2023-07-09T10:20:49;33.50;69.60
10964;DHT22;5534;48.784;9.190;2023-07-09T10:23:26;33.30;69.20
10964;DHT22;5534;48.784;9.190;2023-07-09T10:25:54;33.30;69.80
10964;DHT22;5534;48.784;9.190;2023-07-09T10:31:17;33.50;68.20
10964;DHT22;5534;48.784;9.190;2023-07-09T10:34:00;33.60;67.90
10964;DHT22;5534;48.784;9.190;2023-07-09T10:37:04;33.80;67.30
10964;DHT22;5534;48.784;9.190;2023-07-09T10:39:40;33.80;65.30
10964;DHT22;5534;48.784;9.190;2023-07-09T10:42:18;33.80;66.00
10964;DHT22;5534;48.784;9.190;2023-07-09T10:44:59;33.90;66.00
10964;DHT22;5534;48.784;9.190;2023-07-09T10:47:45;33.90;63.10
10964;DHT22;5534;48.784;9.190;2023-07-09T10:50:23;33.80;63.70
10964;DHT22;5534;48.784;9.190;2023-07-09T10:52:54;33.80;65.40
10964;DHT22;5534;48.784;9.190;2023-07-09T10:55:38;33.90;64.90
10964;DHT22;5534;48.784;9.190;2023-07-09T11:01:00;33.50;66.00
10964;DHT22;5534;48.784;9.190;2023-07-09T11:03:50;33.60;63.80
10964;DHT22;5534;48.784;9.190;2023-07-09T11:06:31;33.80;61.80
10964;DHT22;5534;48.784;9.190;2023-07-09T11:09:00;33.90;60.50
10964;DHT22;5534;48.784;9.190;2023-07-09T11:11:37;34.00;59.90
10964;DHT22;5534;48.784;9.190;2023-07-09T11:14:10;34.00;59.60
10964;DHT22;5534;48.784;9.190;2023-07-09T11:16:39;33.90;59.80
10964;DHT22;5534;48.784;9.190;2023-07-09T11:19:10;33.70;59.40
10964;DHT22;5534;48.784;9.190;2023-07-09T11:22:06;33.60;60.00
10964;DHT22;5534;48.784;9.190;2023-07-09T11:24:48;33.80;60.30
10964;DHT22;5534;48.784;9.190;2023-07-09T11:27:26;33.90;60.40
10964;DHT22;5534;48.784;9.190;2023-07-09T11:30:01;33.80;60.10
10964;DHT22;5534;48.784;9.190;2023-07-09T11:32:28;33.80;57.90
10964;DHT22;5534;48.784;9.190;2023-07-09T11:34:54;34.00;57.10
10964;DHT22;5534;48.784;9.190;2023-07-09T11:37:31;33.90;57.70
10964;DHT22;5534;48.784;9.190;2023-07-09T11:40:09;33.70;60.70
10964;DHT22;5534;48.784;9.190;2023-07-09T11:42:48;33.60;61.40
10964;DHT22;5534;48.784;9.190;2023-07-09T11:45:38;33.90;60.20
10964;DHT22;5534;48.784;9.190;2023-07-09T11:48:21;34.00;61.00
10964;DHT22;5534;48.784;9.190;2023-07-09T11:50:51;34.00;59.90
10964;DHT22;5534;48.784;9.190;2023-07-09T11:53:47;34.10;58.30
10964;DHT22;5534;48.784;9.190;2023-07-09T11:56:17;34.20;58.40
10964;DHT22;5534;48.784;9.190;2023-07-09T11:58:50;34.30;59.00
10964;DHT22;5534;48.784;9.190;2023-07-09T12:01:19;34.10;59.80
10964;DHT22;5534;48.784;9.190;2023-07-09T12:03:47;34.10;60.00
10964;DHT22;5534;48.784;9.190;2023-07-09T12:06:22;34.10;60.10
10964;DHT22;5534;48.784;9.190;2023-07-09T12:08:50;34.10;58.70
10964;DHT22;5534;48.784;9.190;2023-07-09T12:11:31;34.20;58.40
10964;DHT22;5534;48.784;9.190;2023-07-09T12:14:11;34.40;57.90
10964;DHT22;5534;48.784;9.190;2023-07-09T12:16:43;34.40;58.70
10964;DHT22;5534;48.784;9.190;2023-07-09T12:19:12;34.40;58.60
10964;DHT22;5534;48.784;9.190;2023-07-09T12:21:40;34.60;58.60
10964;DHT22;5534;48.784;9.190;2023-07-09T12:24:22;34.70;58.00
10964;DHT22;5534;48.784;9.190;2023-07-09T12:29:17;34.90;56.00
10964;DHT22;5534;48.784;9.190;2023-07-09T12:31:43;34.90;55.20
10964;DHT22;5534;48.784;9.190;2023-07-09T12:34:13;35.00;54.40
10964;DHT22;5534;48.784;9.190;2023-07-09T12:36:49;35.00;54.20
10964;DHT22;5534;48.784;9.190;2023-07-09T12:39:18;35.10;54.10
10964;DHT22;5534;48.784;9.190;2023-07-09T12:41:46;35.30;53.80
10964;DHT22;5534;48.784;9.190;2023-07-09T12:44:20;35.30;53.20
10964;DHT22;5534;48.784;9.190;2023-07-09T12:46:49;35.30;52.70
10964;DHT22;5534;48.784;9.190;2023-07-09T12:49:31;35.40;52.90
10964;DHT22;5534;48.784;9.190;2023-07-09T12:52:07;35.40;52.80
10964;DHT22;5534;48.784;9.190;2023-07-09T12:54:34;35.30;53.30
10964;DHT22;5534;48.784;9.190;2023-07-09T12:57:00;35.10;53.20
10964;DHT22;5534;48.784;9.190;2023-07-09T12:59:39;34.90;52.80
10964;DHT22;5534;48.784;9.190;2023-07-09T13:02:23;34.90;53.00
10964;DHT22;5534;48.784;9.190;2023-07-09T13:04:57;34.80;53.00
10964;DHT22;5534;48.784;9.190;2023-07-09T13:07:25;34.90;52.90
10964;DHT22;5534;48.784;9.190;2023-07-09T13:09:54;34.90;54.30
10964;DHT22;5534;48.784;9.190;2023-07-09T13:12:28;34.90;53.50
10964;DHT22;5534;48.784;9.190;2023-07-09T13:14:55;34.80;53.10
10964;DHT22;5534;48.784;9.190;2023-07-09T13:17:21;34.70;52.80
10964;DHT22;5534;48.784;9.190;2023-07-09T13:19:47;34.80;51.90
10964;DHT22;5534;48.784;9.190;2023-07-09T13:22:15;34.90;51.90
10964;DHT22;5534;48.784;9.190;2023-07-09T13:24:41;34.90;52.00
10964;DHT22;5534;48.784;9.190;2023-07-09T13:27:11;35.00;51.90
10964;DHT22;5534;48.784;9.190;2023-07-09T13:29:37;35.00;52.10
10964;DHT22;5534;48.784;9.190;2023-07-09T13:32:12;35.10;52.30
10964;DHT22;5534;48.784;9.190;2023-07-09T13:34:39;35.00;51.40
10964;DHT22;5534;48.784;9.190;2023-07-09T13:37:11;34.90;51.20
10964;DHT22;5534;48.784;9.190;2023-07-09T13:39:38;34.90;51.20
10964;DHT22;5534;48.784;9.190;2023-07-09T13:42:08;34.90;51.30
10964;DHT22;5534;48.784;9.190;2023-07-09T13:44:35;34.90;51.10
10964;DHT22;5534;48.784;9.190;2023-07-09T13:47:01;34.80;51.80
10964;DHT22;5534;48.784;9.190;2023-07-09T13:49:27;34.70;52.70
10964;DHT22;5534;48.784;9.190;2023-07-09T13:51:56;34.80;52.80
10964;DHT22;5534;48.784;9.190;2023-07-09T13:54:29;34.70;50.90
10964;DHT22;5534;48.784;9.190;2023-07-09T13:57:05;34.80;51.10
10964;DHT22;5534;48.784;9.190;2023-07-09T13:59:31;34.80;52.30
10964;DHT22;5534;48.784;9.190;2023-07-09T14:01:58;35.00;52.30
10964;DHT22;5534;48.784;9.190;2023-07-09T14:04:26;35.00;52.60
10964;DHT22;5534;48.784;9.190;2023-07-09T14:06:52;35.10;54.00
10964;DHT22;5534;48.784;9.190;2023-07-09T14:09:18;35.20;54.30
10964;DHT22;5534;48.784;9.190;2023-07-09T14:11:47;35.10;54.00
10964;DHT22;5534;48.784;9.190;2023-07-09T14:14:23;35.20;54.20
10964;DHT22;5534;48.784;9.190;2023-07-09T14:16:50;35.20;53.70
10964;DHT22;5534;48.784;9.190;2023-07-09T14:19:20;35.20;54.20
10964;DHT22;5534;48.784;9.190;2023-07-09T14:21:47;35.30;53.90
10964;DHT22;5534;48.784;9.190;2023-07-09T14:24:25;35.30;53.90
10964;DHT22;5534;48.784;9.190;2023-07-09T14:26:53;35.10;53.50
10964;DHT22;5534;48.784;9.190;2023-07-09T14:29:20;34.90;54.40
10964;DHT22;5534;48.784;9.190;2023-07-09T14:31:48;34.70;54.40
10964;DHT22;5534;48.784;9.190;2023-07-09T14:34:32;34.80;54.40
10964;DHT22;5534;48.784;9.190;2023-07-09T14:36:59;34.80;54.00
10964;DHT22;5534;48.784;9.190;2023-07-09T14:39:27;34.90;54.80
10964;DHT22;5534;48.784;9.190;2023-07-09T14:41:54;35.00;54.80
10964;DHT22;5534;48.784;9.190;2023-07-09T14:44:30;35.00;55.20
10964;DHT22;5534;48.784;9.190;2023-07-09T14:46:58;35.10;54.40
10964;DHT22;5534;48.784;9.190;2023-07-09T14:49:25;35.20;54.50
10964;DHT22;5534;48.784;9.190;2023-07-09T14:51:51;35.10;53.80
10964;DHT22;5534;48.784;9.190;2023-07-09T14:54:23;35.10;54.30
10964;DHT22;5534;48.784;9.190;2023-07-09T14:56:50;35.10;54.40
10964;DHT22;5534;48.784;9.190;2023-07-09T14:59:16;35.10;53.50
10964;DHT22;5534;48.784;9.190;2023-07-09T15:01:43;35.10;53.30
10964;DHT22;5534;48.784;9.190;2023-07-09T15:06:45;35.10;53.50
10964;DHT22;5534;48.784;9.190;2023-07-09T15:09:11;35.00;53.00
10964;DHT22;5534;48.784;9.190;2023-07-09T15:11:37;35.10;53.80
10964;DHT22;5534;48.784;9.190;2023-07-09T15:14:08;35.20;53.10
10964;DHT22;5534;48.784;9.190;2023-07-09T15:16:34;35.20;53.30
10964;DHT22;5534;48.784;9.190;2023-07-09T15:19:00;35.10;53.00
10964;DHT22;5534;48.784;9.190;2023-07-09T15:21:26;35.10;53.20
10964;DHT22;5534;48.784;9.190;2023-07-09T15:23:52;35.10;53.10
10964;DHT22;5534;48.784;9.190;2023-07-09T15:26:17;35.00;52.60
10964;DHT22;5534;48.784;9.190;2023-07-09T15:28:43;34.90;52.70
10964;DHT22;5534;48.784;9.190;2023-07-09T15:31:12;34.80;53.20
10964;DHT22;5534;48.784;9.190;2023-07-09T15:33:38;34.60;53.60
10964;DHT22;5534;48.784;9.190;2023-07-09T15:36:13;34.40;53.70
10964;DHT22;5534;48.784;9.190;2023-07-09T15:38:41;34.40;53.80
10964;DHT22;5534;48.784;9.190;2023-07-09T15:41:14;34.30;53.40
10964;DHT22;5534;48.784;9.190;2023-07-09T15:43:43;34.40;54.10
10964;DHT22;5534;48.784;9.190;2023-07-09T15:46:17;34.30;53.40
10964;DHT22;5534;48.784;9.190;2023-07-09T15:48:44;34.20;54.20
10964;DHT22;5534;48.784;9.190;2023-07-09T15:51:10;34.30;54.40
10964;DHT22;5534;48.784;9.190;2023-07-09T15:53:37;34.30;54.10
10964;DHT22;5534;48.784;9.190;2023-07-09T15:56:11;34.20;53.90
10964;DHT22;5534;48.784;9.190;2023-07-09T15:58:39;34.30;53.70
10964;DHT22;5534;48.784;9.190;2023-07-09T16:01:07;34.40;53.70
10964;DHT22;5534;48.784;9.190;2023-07-09T16:03:35;34.40;53.50
10964;DHT22;5534;48.784;9.190;2023-07-09T16:06:00;34.40;52.90
10964;DHT22;5534;48.784;9.190;2023-07-09T16:08:26;34.40;53.40
10964;DHT22;5534;48.784;9.190;2023-07-09T16:10:53;34.40;53.20
10964;DHT22;5534;48.784;9.190;2023-07-09T16:13:21;34.40;53.90
10964;DHT22;5534;48.784;9.190;2023-07-09T16:15:48;34.30;54.20
10964;DHT22;5534;48.784;9.190;2023-07-09T16:18:14;34.30;53.40
10964;DHT22;5534;48.784;9.190;2023-07-09T16:20:42;34.30;53.80
10964;DHT22;5534;48.784;9.190;2023-07-09T16:23:16;34.30;53.60
10964;DHT22;5534;48.784;9.190;2023-07-09T16:25:42;34.30;54.10
10964;DHT22;5534;48.784;9.190;2023-07-09T16:28:16;34.20;53.60
10964;DHT22;5534;48.784;9.190;2023-07-09T16:30:45;34.10;54.60
10964;DHT22;5534;48.784;9.190;2023-07-09T16:33:12;34.10;53.60